sensor_id;sensor_type;location;lat;lon;timestamp;P1;durP1;ratioP1;P2;durP2;ratioP2
12623;SDS011;6377;42.836;23.998;2023-03-01T00:00:25;10.90;;;6.80;;
12623;SDS011;6377;42.836;23.998;2023-03-01T00:02:53;10.23;;;6.17;;
12623;SDS011;6377;42.836;23.998;2023-03-01T00:05:22;8.30;;;5.17;;
12623;SDS011;6377;42.836;23.998;2023-03-01T00:07:52;5.13;;;3.60;;
12623;SDS011;6377;42.836;23.998;2023-03-01T00:10:19;5.67;;;3.60;;
12623;SDS011;6377;42.836;23.998;2023-03-01T00:12:47;10.30;;;6.63;;
12623;SDS011;6377;42.836;23.998;2023-03-01T00:15:14;9.73;;;6.03;;
12623;SDS011;6377;42.836;23.998;2023-03-01T00:17:41;11.00;;;4.80;;
12623;SDS011;6377;42.836;23.998;2023-03-01T00:20:09;10.83;;;6.00;;
12623;SDS011;6377;42.836;23.998;2023-03-01T00:22:39;7.00;;;4.10;;
12623;SDS011;6377;42.836;23.998;2023-03-01T00:25:07;4.97;;;3.43;;
12623;SDS011;6377;42.836;23.998;2023-03-01T00:27:35;5.83;;;3.97;;
12623;SDS011;6377;42.836;23.998;2023-03-01T00:30:02;7.20;;;4.60;;
12623;SDS011;6377;42.836;23.998;2023-03-01T00:32:30;6.90;;;3.87;;
12623;SDS011;6377;42.836;23.998;2023-03-01T00:34:57;8.03;;;4.93;;
12623;SDS011;6377;42.836;23.998;2023-03-01T00:37:25;6.20;;;3.70;;
12623;SDS011;6377;42.836;23.998;2023-03-01T00:39:54;6.00;;;4.10;;
12623;SDS011;6377;42.836;23.998;2023-03-01T00:42:21;5.07;;;3.13;;
12623;SDS011;6377;42.836;23.998;2023-03-01T00:44:49;7.13;;;4.33;;
12623;SDS011;6377;42.836;23.998;2023-03-01T00:47:16;8.30;;;5.33;;
12623;SDS011;6377;42.836;23.998;2023-03-01T00:49:44;5.80;;;3.63;;
12623;SDS011;6377;42.836;23.998;2023-03-01T00:52:11;4.23;;;3.20;;
12623;SDS011;6377;42.836;23.998;2023-03-01T00:54:39;5.90;;;3.90;;
12623;SDS011;6377;42.836;23.998;2023-03-01T00:57:07;7.23;;;4.57;;
12623;SDS011;6377;42.836;23.998;2023-03-01T00:59:35;5.17;;;3.60;;
12623;SDS011;6377;42.836;23.998;2023-03-01T01:02:02;7.27;;;4.77;;
12623;SDS011;6377;42.836;23.998;2023-03-01T01:04:30;6.90;;;5.17;;
12623;SDS011;6377;42.836;23.998;2023-03-01T01:06:57;6.90;;;4.40;;
12623;SDS011;6377;42.836;23.998;2023-03-01T01:09:24;5.37;;;4.13;;
12623;SDS011;6377;42.836;23.998;2023-03-01T01:11:52;7.00;;;4.70;;
12623;SDS011;6377;42.836;23.998;2023-03-01T01:14:20;5.53;;;4.27;;
12623;SDS011;6377;42.836;23.998;2023-03-01T01:16:48;4.63;;;3.43;;
12623;SDS011;6377;42.836;23.998;2023-03-01T01:19:15;4.60;;;2.90;;
12623;SDS011;6377;42.836;23.998;2023-03-01T01:21:43;3.47;;;2.80;;
12623;SDS011;6377;42.836;23.998;2023-03-01T01:24:11;3.63;;;2.70;;
12623;SDS011;6377;42.836;23.998;2023-03-01T01:26:38;15.00;;;10.60;;
12623;SDS011;6377;42.836;23.998;2023-03-01T01:29:07;12.00;;;9.30;;
12623;SDS011;6377;42.836;23.998;2023-03-01T01:31:36;6.77;;;5.30;;
12623;SDS011;6377;42.836;23.998;2023-03-01T01:34:05;7.23;;;5.33;;
12623;SDS011;6377;42.836;23.998;2023-03-01T01:36:33;8.97;;;6.03;;
12623;SDS011;6377;42.836;23.998;2023-03-01T01:39:02;7.33;;;4.57;;
12623;SDS011;6377;42.836;23.998;2023-03-01T01:41:30;8.70;;;5.93;;
12623;SDS011;6377;42.836;23.998;2023-03-01T01:44:12;7.23;;;5.80;;
12623;SDS011;6377;42.836;23.998;2023-03-01T01:46:43;4.97;;;3.93;;
12623;SDS011;6377;42.836;23.998;2023-03-01T01:49:22;5.40;;;3.40;;
12623;SDS011;6377;42.836;23.998;2023-03-01T01:51:57;6.97;;;4.60;;
12623;SDS011;6377;42.836;23.998;2023-03-01T01:54:37;5.10;;;3.40;;
12623;SDS011;6377;42.836;23.998;2023-03-01T01:57:10;5.53;;;2.90;;
12623;SDS011;6377;42.836;23.998;2023-03-01T01:59:41;4.60;;;2.90;;
12623;SDS011;6377;42.836;23.998;2023-03-01T02:02:13;3.77;;;2.73;;
12623;SDS011;6377;42.836;23.998;2023-03-01T02:04:41;5.10;;;3.77;;
12623;SDS011;6377;42.836;23.998;2023-03-01T02:07:10;6.17;;;3.90;;
12623;SDS011;6377;42.836;23.998;2023-03-01T02:09:42;5.80;;;3.60;;
12623;SDS011;6377;42.836;23.998;2023-03-01T02:12:12;6.20;;;4.20;;
12623;SDS011;6377;42.836;23.998;2023-03-01T02:14:40;8.10;;;4.87;;
12623;SDS011;6377;42.836;23.998;2023-03-01T02:17:08;11.47;;;5.50;;
12623;SDS011;6377;42.836;23.998;2023-03-01T02:19:42;11.13;;;6.67;;
12623;SDS011;6377;42.836;23.998;2023-03-01T02:22:18;5.70;;;4.03;;
12623;SDS011;6377;42.836;23.998;2023-03-01T02:24:51;5.57;;;3.60;;
12623;SDS011;6377;42.836;23.998;2023-03-01T02:27:33;6.90;;;4.77;;
12623;SDS011;6377;42.836;23.998;2023-03-01T02:30:10;4.73;;;3.33;;
12623;SDS011;6377;42.836;23.998;2023-03-01T02:32:39;6.00;;;4.30;;
12623;SDS011;6377;42.836;23.998;2023-03-01T02:35:08;5.60;;;3.33;;
12623;SDS011;6377;42.836;23.998;2023-03-01T02:37:37;3.90;;;3.17;;
12623;SDS011;6377;42.836;23.998;2023-03-01T02:40:07;4.87;;;3.60;;
12623;SDS011;6377;42.836;23.998;2023-03-01T02:42:40;5.03;;;3.30;;
12623;SDS011;6377;42.836;23.998;2023-03-01T02:45:13;3.30;;;2.73;;
12623;SDS011;6377;42.836;23.998;2023-03-01T02:47:41;4.93;;;3.47;;
12623;SDS011;6377;42.836;23.998;2023-03-01T02:50:14;5.77;;;3.23;;
12623;SDS011;6377;42.836;23.998;2023-03-01T02:52:47;4.50;;;3.10;;
12623;SDS011;6377;42.836;23.998;2023-03-01T02:55:25;4.87;;;3.53;;
12623;SDS011;6377;42.836;23.998;2023-03-01T02:57:52;3.73;;;2.83;;
12623;SDS011;6377;42.836;23.998;2023-03-01T03:00:24;5.47;;;3.40;;
12623;SDS011;6377;42.836;23.998;2023-03-01T03:02:58;5.33;;;2.70;;
12623;SDS011;6377;42.836;23.998;2023-03-01T03:05:29;4.50;;;3.17;;
12623;SDS011;6377;42.836;23.998;2023-03-01T03:08:00;4.03;;;2.87;;
12623;SDS011;6377;42.836;23.998;2023-03-01T03:10:29;5.67;;;3.50;;
12623;SDS011;6377;42.836;23.998;2023-03-01T03:12:59;5.70;;;3.53;;
12623;SDS011;6377;42.836;23.998;2023-03-01T03:15:29;5.63;;;3.60;;
12623;SDS011;6377;42.836;23.998;2023-03-01T03:17:57;5.47;;;3.40;;
12623;SDS011;6377;42.836;23.998;2023-03-01T03:20:25;4.90;;;2.70;;
12623;SDS011;6377;42.836;23.998;2023-03-01T03:22:54;4.40;;;2.80;;
12623;SDS011;6377;42.836;23.998;2023-03-01T03:25:23;3.57;;;2.60;;
12623;SDS011;6377;42.836;23.998;2023-03-01T03:27:53;5.70;;;3.30;;
12623;SDS011;6377;42.836;23.998;2023-03-01T03:30:23;6.03;;;3.53;;
12623;SDS011;6377;42.836;23.998;2023-03-01T03:32:53;4.70;;;3.07;;
12623;SDS011;6377;42.836;23.998;2023-03-01T03:35:22;5.77;;;3.30;;
12623;SDS011;6377;42.836;23.998;2023-03-01T03:37:55;4.00;;;3.13;;
12623;SDS011;6377;42.836;23.998;2023-03-01T03:40:31;6.33;;;3.53;;
12623;SDS011;6377;42.836;23.998;2023-03-01T03:43:02;7.60;;;3.93;;
12623;SDS011;6377;42.836;23.998;2023-03-01T03:45:30;5.13;;;3.20;;
12623;SDS011;6377;42.836;23.998;2023-03-01T03:48:00;6.13;;;3.67;;
12623;SDS011;6377;42.836;23.998;2023-03-01T03:50:28;6.47;;;3.17;;
12623;SDS011;6377;42.836;23.998;2023-03-01T03:52:56;6.53;;;3.50;;
12623;SDS011;6377;42.836;23.998;2023-03-01T03:55:24;7.73;;;4.43;;
12623;SDS011;6377;42.836;23.998;2023-03-01T03:57:57;4.60;;;3.23;;
12623;SDS011;6377;42.836;23.998;2023-03-01T04:00:27;5.13;;;3.90;;
12623;SDS011;6377;42.836;23.998;2023-03-01T04:02:55;5.03;;;3.40;;
12623;SDS011;6377;42.836;23.998;2023-03-01T04:05:24;4.13;;;2.90;;
12623;SDS011;6377;42.836;23.998;2023-03-01T04:07:51;5.07;;;3.17;;
12623;SDS011;6377;42.836;23.998;2023-03-01T04:10:26;4.13;;;2.77;;
12623;SDS011;6377;42.836;23.998;2023-03-01T04:12:55;3.90;;;2.70;;
12623;SDS011;6377;42.836;23.998;2023-03-01T04:15:23;4.53;;;3.30;;
12623;SDS011;6377;42.836;23.998;2023-03-01T04:17:51;5.30;;;2.83;;
12623;SDS011;6377;42.836;23.998;2023-03-01T04:20:20;6.13;;;3.80;;
12623;SDS011;6377;42.836;23.998;2023-03-01T04:22:52;4.70;;;3.60;;
12623;SDS011;6377;42.836;23.998;2023-03-01T04:25:23;4.17;;;3.57;;
12623;SDS011;6377;42.836;23.998;2023-03-01T04:27:51;5.53;;;3.70;;
12623;SDS011;6377;42.836;23.998;2023-03-01T04:30:18;5.80;;;4.20;;
12623;SDS011;6377;42.836;23.998;2023-03-01T04:32:50;6.50;;;4.73;;
12623;SDS011;6377;42.836;23.998;2023-03-01T04:35:17;6.27;;;4.17;;
12623;SDS011;6377;42.836;23.998;2023-03-01T04:37:45;4.67;;;3.50;;
12623;SDS011;6377;42.836;23.998;2023-03-01T04:40:14;5.10;;;3.60;;
12623;SDS011;6377;42.836;23.998;2023-03-01T04:42:42;4.60;;;3.60;;
12623;SDS011;6377;42.836;23.998;2023-03-01T04:45:10;7.37;;;4.87;;
12623;SDS011;6377;42.836;23.998;2023-03-01T04:47:40;7.10;;;4.83;;
12623;SDS011;6377;42.836;23.998;2023-03-01T04:50:08;10.67;;;7.10;;
12623;SDS011;6377;42.836;23.998;2023-03-01T04:52:36;5.97;;;3.90;;
12623;SDS011;6377;42.836;23.998;2023-03-01T04:55:04;5.40;;;3.40;;
12623;SDS011;6377;42.836;23.998;2023-03-01T04:57:33;4.67;;;3.33;;
12623;SDS011;6377;42.836;23.998;2023-03-01T05:00:01;3.60;;;2.40;;
12623;SDS011;6377;42.836;23.998;2023-03-01T05:02:45;1.33;;;1.13;;
12623;SDS011;6377;42.836;23.998;2023-03-01T05:05:19;2.20;;;1.50;;
12623;SDS011;6377;42.836;23.998;2023-03-01T05:07:54;5.70;;;3.30;;
12623;SDS011;6377;42.836;23.998;2023-03-01T05:10:23;2.37;;;1.80;;
12623;SDS011;6377;42.836;23.998;2023-03-01T05:12:54;3.40;;;2.60;;
12623;SDS011;6377;42.836;23.998;2023-03-01T05:15:22;12.50;;;8.20;;
12623;SDS011;6377;42.836;23.998;2023-03-01T05:17:52;11.57;;;6.73;;
12623;SDS011;6377;42.836;23.998;2023-03-01T05:20:20;10.87;;;6.40;;
12623;SDS011;6377;42.836;23.998;2023-03-01T05:22:49;12.63;;;6.70;;
12623;SDS011;6377;42.836;23.998;2023-03-01T05:25:16;13.73;;;9.37;;
12623;SDS011;6377;42.836;23.998;2023-03-01T05:27:44;10.67;;;7.60;;
12623;SDS011;6377;42.836;23.998;2023-03-01T05:30:13;8.67;;;6.27;;
12623;SDS011;6377;42.836;23.998;2023-03-01T05:32:43;5.53;;;4.43;;
12623;SDS011;6377;42.836;23.998;2023-03-01T05:35:11;3.77;;;3.17;;
12623;SDS011;6377;42.836;23.998;2023-03-01T05:37:40;2.70;;;2.03;;
12623;SDS011;6377;42.836;23.998;2023-03-01T05:40:09;2.47;;;2.00;;
12623;SDS011;6377;42.836;23.998;2023-03-01T05:42:43;1.30;;;1.20;;
12623;SDS011;6377;42.836;23.998;2023-03-01T05:45:13;2.30;;;2.10;;
12623;SDS011;6377;42.836;23.998;2023-03-01T05:47:41;8.07;;;6.50;;
12623;SDS011;6377;42.836;23.998;2023-03-01T05:50:11;7.93;;;5.80;;
12623;SDS011;6377;42.836;23.998;2023-03-01T05:52:39;5.03;;;3.90;;
12623;SDS011;6377;42.836;23.998;2023-03-01T05:55:07;11.13;;;8.60;;
12623;SDS011;6377;42.836;23.998;2023-03-01T05:57:34;13.07;;;10.17;;
12623;SDS011;6377;42.836;23.998;2023-03-01T06:00:02;10.90;;;8.40;;
12623;SDS011;6377;42.836;23.998;2023-03-01T06:02:33;12.03;;;7.57;;
12623;SDS011;6377;42.836;23.998;2023-03-01T06:05:00;4.87;;;3.33;;
12623;SDS011;6377;42.836;23.998;2023-03-01T06:07:27;8.03;;;4.97;;
12623;SDS011;6377;42.836;23.998;2023-03-01T06:09:54;3.97;;;2.90;;
12623;SDS011;6377;42.836;23.998;2023-03-01T06:12:22;5.90;;;4.20;;
12623;SDS011;6377;42.836;23.998;2023-03-01T06:14:49;5.60;;;3.70;;
12623;SDS011;6377;42.836;23.998;2023-03-01T06:17:16;7.67;;;5.57;;
12623;SDS011;6377;42.836;23.998;2023-03-01T06:19:45;8.93;;;6.20;;
12623;SDS011;6377;42.836;23.998;2023-03-01T06:22:13;11.60;;;7.97;;
12623;SDS011;6377;42.836;23.998;2023-03-01T06:24:42;5.03;;;3.83;;
12623;SDS011;6377;42.836;23.998;2023-03-01T06:27:09;6.83;;;4.93;;
12623;SDS011;6377;42.836;23.998;2023-03-01T06:29:37;8.27;;;6.10;;
12623;SDS011;6377;42.836;23.998;2023-03-01T06:32:04;9.47;;;6.23;;
12623;SDS011;6377;42.836;23.998;2023-03-01T06:34:33;6.77;;;4.53;;
12623;SDS011;6377;42.836;23.998;2023-03-01T06:37:02;2.97;;;1.87;;
12623;SDS011;6377;42.836;23.998;2023-03-01T06:39:30;6.27;;;4.90;;
12623;SDS011;6377;42.836;23.998;2023-03-01T06:41:57;4.30;;;3.90;;
12623;SDS011;6377;42.836;23.998;2023-03-01T06:44:28;3.77;;;3.33;;
12623;SDS011;6377;42.836;23.998;2023-03-01T06:46:56;3.10;;;2.60;;
12623;SDS011;6377;42.836;23.998;2023-03-01T06:49:26;3.87;;;3.17;;
12623;SDS011;6377;42.836;23.998;2023-03-01T06:51:54;7.07;;;4.60;;
12623;SDS011;6377;42.836;23.998;2023-03-01T06:54:23;4.53;;;3.10;;
12623;SDS011;6377;42.836;23.998;2023-03-01T06:56:50;7.13;;;5.20;;
12623;SDS011;6377;42.836;23.998;2023-03-01T06:59:27;7.67;;;5.90;;
12623;SDS011;6377;42.836;23.998;2023-03-01T07:01:54;4.90;;;4.17;;
12623;SDS011;6377;42.836;23.998;2023-03-01T07:04:21;4.80;;;3.70;;
12623;SDS011;6377;42.836;23.998;2023-03-01T07:06:49;9.97;;;6.07;;
12623;SDS011;6377;42.836;23.998;2023-03-01T07:09:23;5.77;;;3.97;;
12623;SDS011;6377;42.836;23.998;2023-03-01T07:11:50;8.73;;;5.90;;
12623;SDS011;6377;42.836;23.998;2023-03-01T07:14:18;12.00;;;7.50;;
12623;SDS011;6377;42.836;23.998;2023-03-01T07:16:46;10.23;;;6.57;;
12623;SDS011;6377;42.836;23.998;2023-03-01T07:19:13;9.83;;;6.23;;
12623;SDS011;6377;42.836;23.998;2023-03-01T07:21:40;9.53;;;5.30;;
12623;SDS011;6377;42.836;23.998;2023-03-01T07:24:08;2.87;;;2.30;;
12623;SDS011;6377;42.836;23.998;2023-03-01T07:26:37;5.07;;;3.30;;
12623;SDS011;6377;42.836;23.998;2023-03-01T07:29:05;7.93;;;5.73;;
12623;SDS011;6377;42.836;23.998;2023-03-01T07:31:34;9.70;;;5.50;;
12623;SDS011;6377;42.836;23.998;2023-03-01T07:34:02;10.20;;;6.63;;
12623;SDS011;6377;42.836;23.998;2023-03-01T07:36:29;8.47;;;4.73;;
12623;SDS011;6377;42.836;23.998;2023-03-01T07:38:57;8.17;;;5.87;;
12623;SDS011;6377;42.836;23.998;2023-03-01T07:41:24;9.27;;;7.47;;
12623;SDS011;6377;42.836;23.998;2023-03-01T07:43:53;4.27;;;3.13;;
12623;SDS011;6377;42.836;23.998;2023-03-01T07:58:05;4.43;;;3.47;;
12623;SDS011;6377;42.836;23.998;2023-03-01T08:00:32;3.90;;;3.20;;
12623;SDS011;6377;42.836;23.998;2023-03-01T08:02:59;2.50;;;2.10;;
12623;SDS011;6377;42.836;23.998;2023-03-01T08:05:27;3.93;;;2.43;;
12623;SDS011;6377;42.836;23.998;2023-03-01T08:13:28;7.60;;;4.47;;
12623;SDS011;6377;42.836;23.998;2023-03-01T08:16:05;8.47;;;5.33;;
12623;SDS011;6377;42.836;23.998;2023-03-01T08:18:43;9.23;;;5.97;;
12623;SDS011;6377;42.836;23.998;2023-03-01T08:21:11;8.00;;;5.13;;
12623;SDS011;6377;42.836;23.998;2023-03-01T08:23:42;8.63;;;5.47;;
12623;SDS011;6377;42.836;23.998;2023-03-01T08:26:13;8.50;;;5.93;;
12623;SDS011;6377;42.836;23.998;2023-03-01T08:28:54;8.20;;;4.50;;
12623;SDS011;6377;42.836;23.998;2023-03-01T08:31:22;8.47;;;6.27;;
12623;SDS011;6377;42.836;23.998;2023-03-01T08:34:14;5.70;;;4.60;;
12623;SDS011;6377;42.836;23.998;2023-03-01T08:36:43;6.17;;;4.30;;
12623;SDS011;6377;42.836;23.998;2023-03-01T08:39:11;4.73;;;3.80;;
12623;SDS011;6377;42.836;23.998;2023-03-01T08:41:40;7.33;;;4.80;;
12623;SDS011;6377;42.836;23.998;2023-03-01T08:47:01;11.87;;;6.47;;
12623;SDS011;6377;42.836;23.998;2023-03-01T08:49:30;5.13;;;4.57;;
12623;SDS011;6377;42.836;23.998;2023-03-01T08:51:58;6.40;;;5.07;;
12623;SDS011;6377;42.836;23.998;2023-03-01T08:54:26;7.93;;;5.90;;
12623;SDS011;6377;42.836;23.998;2023-03-01T08:57:01;6.40;;;5.07;;
12623;SDS011;6377;42.836;23.998;2023-03-01T08:59:28;7.03;;;5.70;;
12623;SDS011;6377;42.836;23.998;2023-03-01T09:02:02;6.57;;;5.40;;
12623;SDS011;6377;42.836;23.998;2023-03-01T09:04:30;8.30;;;6.00;;
12623;SDS011;6377;42.836;23.998;2023-03-01T09:06:58;6.13;;;5.27;;
12623;SDS011;6377;42.836;23.998;2023-03-01T09:09:31;4.97;;;4.40;;
12623;SDS011;6377;42.836;23.998;2023-03-01T09:11:58;6.27;;;5.60;;
12623;SDS011;6377;42.836;23.998;2023-03-01T09:14:25;7.13;;;5.53;;
12623;SDS011;6377;42.836;23.998;2023-03-01T09:16:53;8.13;;;5.37;;
12623;SDS011;6377;42.836;23.998;2023-03-01T09:19:30;5.77;;;4.87;;
12623;SDS011;6377;42.836;23.998;2023-03-01T09:21:57;22.93;;;13.70;;
12623;SDS011;6377;42.836;23.998;2023-03-01T09:24:25;18.97;;;14.37;;
12623;SDS011;6377;42.836;23.998;2023-03-01T09:26:55;7.50;;;6.17;;
12623;SDS011;6377;42.836;23.998;2023-03-01T09:29:23;10.70;;;6.50;;
12623;SDS011;6377;42.836;23.998;2023-03-01T09:31:51;6.67;;;5.27;;
12623;SDS011;6377;42.836;23.998;2023-03-01T09:34:26;8.20;;;5.20;;
12623;SDS011;6377;42.836;23.998;2023-03-01T09:36:54;8.20;;;6.53;;
12623;SDS011;6377;42.836;23.998;2023-03-01T09:39:27;8.13;;;6.03;;
12623;SDS011;6377;42.836;23.998;2023-03-01T09:41:57;4.23;;;3.83;;
12623;SDS011;6377;42.836;23.998;2023-03-01T09:44:28;3.50;;;2.70;;
12623;SDS011;6377;42.836;23.998;2023-03-01T09:47:00;3.97;;;3.30;;
12623;SDS011;6377;42.836;23.998;2023-03-01T09:49:29;10.60;;;5.70;;
12623;SDS011;6377;42.836;23.998;2023-03-01T09:52:03;7.20;;;4.70;;
12623;SDS011;6377;42.836;23.998;2023-03-01T09:54:37;15.23;;;6.73;;
12623;SDS011;6377;42.836;23.998;2023-03-01T09:57:06;19.93;;;10.80;;
12623;SDS011;6377;42.836;23.998;2023-03-01T09:59:48;11.17;;;6.03;;
12623;SDS011;6377;42.836;23.998;2023-03-01T10:02:30;14.73;;;9.13;;
12623;SDS011;6377;42.836;23.998;2023-03-01T10:05:05;12.00;;;6.47;;
12623;SDS011;6377;42.836;23.998;2023-03-01T10:07:46;15.77;;;9.93;;
12623;SDS011;6377;42.836;23.998;2023-03-01T10:10:23;4.47;;;3.30;;
12623;SDS011;6377;42.836;23.998;2023-03-01T10:12:59;11.77;;;7.90;;
12623;SDS011;6377;42.836;23.998;2023-03-01T10:15:32;8.80;;;6.53;;
12623;SDS011;6377;42.836;23.998;2023-03-01T10:18:04;8.90;;;5.80;;
12623;SDS011;6377;42.836;23.998;2023-03-01T10:20:41;7.97;;;5.37;;
12623;SDS011;6377;42.836;23.998;2023-03-01T10:23:14;7.87;;;7.07;;
12623;SDS011;6377;42.836;23.998;2023-03-01T10:25:47;8.50;;;5.73;;
12623;SDS011;6377;42.836;23.998;2023-03-01T10:28:24;5.53;;;4.93;;
12623;SDS011;6377;42.836;23.998;2023-03-01T10:30:54;10.67;;;6.90;;
12623;SDS011;6377;42.836;23.998;2023-03-01T10:33:26;9.60;;;5.80;;
12623;SDS011;6377;42.836;23.998;2023-03-01T10:35:55;6.50;;;5.70;;
12623;SDS011;6377;42.836;23.998;2023-03-01T10:38:24;4.43;;;3.63;;
12623;SDS011;6377;42.836;23.998;2023-03-01T10:40:53;5.47;;;4.20;;
12623;SDS011;6377;42.836;23.998;2023-03-01T10:43:22;7.27;;;4.30;;
12623;SDS011;6377;42.836;23.998;2023-03-01T10:45:50;4.93;;;3.90;;
12623;SDS011;6377;42.836;23.998;2023-03-01T10:48:18;4.67;;;3.80;;
12623;SDS011;6377;42.836;23.998;2023-03-01T10:50:50;6.83;;;5.27;;
12623;SDS011;6377;42.836;23.998;2023-03-01T10:53:33;19.27;;;12.70;;
12623;SDS011;6377;42.836;23.998;2023-03-01T10:56:03;14.60;;;10.30;;
12623;SDS011;6377;42.836;23.998;2023-03-01T10:58:32;8.63;;;7.20;;
12623;SDS011;6377;42.836;23.998;2023-03-01T11:01:01;11.73;;;8.47;;
12623;SDS011;6377;42.836;23.998;2023-03-01T11:03:31;9.83;;;7.43;;
12623;SDS011;6377;42.836;23.998;2023-03-01T11:06:01;13.80;;;10.10;;
12623;SDS011;6377;42.836;23.998;2023-03-01T11:08:33;6.00;;;4.67;;
12623;SDS011;6377;42.836;23.998;2023-03-01T11:13:58;4.97;;;3.90;;
12623;SDS011;6377;42.836;23.998;2023-03-01T11:16:29;4.07;;;3.20;;
12623;SDS011;6377;42.836;23.998;2023-03-01T11:19:00;6.10;;;4.87;;
12623;SDS011;6377;42.836;23.998;2023-03-01T11:21:41;4.20;;;3.53;;
12623;SDS011;6377;42.836;23.998;2023-03-01T11:24:14;7.93;;;5.60;;
12623;SDS011;6377;42.836;23.998;2023-03-01T11:26:45;7.87;;;5.33;;
12623;SDS011;6377;42.836;23.998;2023-03-01T11:29:18;8.33;;;5.07;;
12623;SDS011;6377;42.836;23.998;2023-03-01T11:31:58;6.10;;;4.53;;
12623;SDS011;6377;42.836;23.998;2023-03-01T11:34:33;8.50;;;4.73;;
12623;SDS011;6377;42.836;23.998;2023-03-01T11:37:09;19.83;;;14.30;;
12623;SDS011;6377;42.836;23.998;2023-03-01T11:39:46;7.67;;;6.53;;
12623;SDS011;6377;42.836;23.998;2023-03-01T11:42:20;8.43;;;7.40;;
12623;SDS011;6377;42.836;23.998;2023-03-01T11:44:56;14.90;;;12.40;;
12623;SDS011;6377;42.836;23.998;2023-03-01T11:47:31;8.87;;;6.83;;
12623;SDS011;6377;42.836;23.998;2023-03-01T11:50:14;10.80;;;8.60;;
12623;SDS011;6377;42.836;23.998;2023-03-01T11:52:49;11.27;;;8.13;;
12623;SDS011;6377;42.836;23.998;2023-03-01T11:55:29;16.20;;;11.37;;
12623;SDS011;6377;42.836;23.998;2023-03-01T11:58:09;13.87;;;10.50;;
12623;SDS011;6377;42.836;23.998;2023-03-01T12:13:47;8.80;;;6.70;;
12623;SDS011;6377;42.836;23.998;2023-03-01T12:19:50;12.50;;;8.90;;
12623;SDS011;6377;42.836;23.998;2023-03-01T12:22:29;14.80;;;11.83;;
12623;SDS011;6377;42.836;23.998;2023-03-01T12:31:10;65.53;;;31.30;;
12623;SDS011;6377;42.836;23.998;2023-03-01T12:34:01;35.57;;;20.43;;
12623;SDS011;6377;42.836;23.998;2023-03-01T12:36:46;21.90;;;15.67;;
12623;SDS011;6377;42.836;23.998;2023-03-01T12:39:32;19.10;;;14.27;;
12623;SDS011;6377;42.836;23.998;2023-03-01T12:42:14;30.13;;;20.57;;
12623;SDS011;6377;42.836;23.998;2023-03-01T12:45:16;27.33;;;16.80;;
12623;SDS011;6377;42.836;23.998;2023-03-01T12:48:08;36.33;;;17.70;;
12623;SDS011;6377;42.836;23.998;2023-03-01T12:50:50;19.23;;;12.30;;
12623;SDS011;6377;42.836;23.998;2023-03-01T12:53:23;19.87;;;12.13;;
12623;SDS011;6377;42.836;23.998;2023-03-01T12:55:52;12.73;;;8.70;;
12623;SDS011;6377;42.836;23.998;2023-03-01T12:58:24;47.13;;;21.60;;
12623;SDS011;6377;42.836;23.998;2023-03-01T13:01:04;15.40;;;9.93;;
12623;SDS011;6377;42.836;23.998;2023-03-01T13:06:57;30.17;;;14.20;;
12623;SDS011;6377;42.836;23.998;2023-03-01T13:09:35;23.73;;;15.10;;
12623;SDS011;6377;42.836;23.998;2023-03-01T13:15:24;21.47;;;12.73;;
12623;SDS011;6377;42.836;23.998;2023-03-01T13:17:59;40.53;;;26.77;;
12623;SDS011;6377;42.836;23.998;2023-03-01T13:20:30;35.77;;;21.73;;
12623;SDS011;6377;42.836;23.998;2023-03-01T13:23:02;20.80;;;14.37;;
12623;SDS011;6377;42.836;23.998;2023-03-01T13:26:00;21.83;;;15.53;;
12623;SDS011;6377;42.836;23.998;2023-03-01T13:28:36;22.23;;;14.10;;
12623;SDS011;6377;42.836;23.998;2023-03-01T13:31:07;24.90;;;16.30;;
12623;SDS011;6377;42.836;23.998;2023-03-01T13:33:55;25.03;;;16.80;;
12623;SDS011;6377;42.836;23.998;2023-03-01T13:41:59;11.23;;;7.90;;
12623;SDS011;6377;42.836;23.998;2023-03-01T13:44:26;12.90;;;9.53;;
12623;SDS011;6377;42.836;23.998;2023-03-01T13:46:59;16.40;;;11.77;;
12623;SDS011;6377;42.836;23.998;2023-03-01T13:49:36;16.23;;;10.70;;
12623;SDS011;6377;42.836;23.998;2023-03-01T13:52:21;11.37;;;8.03;;
12623;SDS011;6377;42.836;23.998;2023-03-01T13:55:02;14.57;;;11.17;;
12623;SDS011;6377;42.836;23.998;2023-03-01T13:57:33;30.57;;;18.03;;
12623;SDS011;6377;42.836;23.998;2023-03-01T14:00:04;25.70;;;19.07;;
12623;SDS011;6377;42.836;23.998;2023-03-01T14:02:33;24.37;;;18.60;;
12623;SDS011;6377;42.836;23.998;2023-03-01T14:05:01;26.53;;;18.57;;
12623;SDS011;6377;42.836;23.998;2023-03-01T14:07:28;25.13;;;16.40;;
12623;SDS011;6377;42.836;23.998;2023-03-01T14:09:56;22.97;;;17.00;;
12623;SDS011;6377;42.836;23.998;2023-03-01T14:12:29;19.57;;;14.17;;
12623;SDS011;6377;42.836;23.998;2023-03-01T14:15:06;16.63;;;12.50;;
12623;SDS011;6377;42.836;23.998;2023-03-01T14:17:42;17.70;;;11.50;;
12623;SDS011;6377;42.836;23.998;2023-03-01T14:20:17;21.73;;;14.93;;
12623;SDS011;6377;42.836;23.998;2023-03-01T14:22:46;20.37;;;14.27;;
12623;SDS011;6377;42.836;23.998;2023-03-01T14:25:23;19.47;;;11.67;;
12623;SDS011;6377;42.836;23.998;2023-03-01T14:27:54;14.30;;;10.73;;
12623;SDS011;6377;42.836;23.998;2023-03-01T14:30:25;18.37;;;13.57;;
12623;SDS011;6377;42.836;23.998;2023-03-01T14:32:56;11.63;;;8.53;;
12623;SDS011;6377;42.836;23.998;2023-03-01T14:35:25;14.03;;;9.87;;
12623;SDS011;6377;42.836;23.998;2023-03-01T14:37:53;18.83;;;12.23;;
12623;SDS011;6377;42.836;23.998;2023-03-01T14:40:21;20.33;;;12.50;;
12623;SDS011;6377;42.836;23.998;2023-03-01T14:42:51;20.53;;;14.20;;
12623;SDS011;6377;42.836;23.998;2023-03-01T14:45:20;45.23;;;30.40;;
12623;SDS011;6377;42.836;23.998;2023-03-01T14:47:50;21.73;;;15.20;;
12623;SDS011;6377;42.836;23.998;2023-03-01T14:50:24;66.03;;;32.10;;
12623;SDS011;6377;42.836;23.998;2023-03-01T14:52:54;40.23;;;22.37;;
12623;SDS011;6377;42.836;23.998;2023-03-01T14:55:25;21.77;;;14.93;;
12623;SDS011;6377;42.836;23.998;2023-03-01T14:57:56;29.70;;;18.37;;
12623;SDS011;6377;42.836;23.998;2023-03-01T15:00:26;23.80;;;14.10;;
12623;SDS011;6377;42.836;23.998;2023-03-01T15:02:55;22.57;;;14.30;;
12623;SDS011;6377;42.836;23.998;2023-03-01T15:05:28;23.83;;;13.50;;
12623;SDS011;6377;42.836;23.998;2023-03-01T15:07:57;36.07;;;21.87;;
12623;SDS011;6377;42.836;23.998;2023-03-01T15:10:27;40.50;;;22.37;;
12623;SDS011;6377;42.836;23.998;2023-03-01T15:13:09;41.53;;;22.67;;
12623;SDS011;6377;42.836;23.998;2023-03-01T15:15:39;42.43;;;25.23;;
12623;SDS011;6377;42.836;23.998;2023-03-01T15:18:15;50.37;;;31.50;;
12623;SDS011;6377;42.836;23.998;2023-03-01T15:20:45;22.10;;;14.60;;
12623;SDS011;6377;42.836;23.998;2023-03-01T15:23:18;22.63;;;15.00;;
12623;SDS011;6377;42.836;23.998;2023-03-01T15:25:48;29.43;;;18.23;;
12623;SDS011;6377;42.836;23.998;2023-03-01T15:28:22;42.53;;;28.97;;
12623;SDS011;6377;42.836;23.998;2023-03-01T15:30:54;39.10;;;26.33;;
12623;SDS011;6377;42.836;23.998;2023-03-01T15:33:31;56.60;;;39.30;;
12623;SDS011;6377;42.836;23.998;2023-03-01T15:36:00;50.10;;;32.80;;
12623;SDS011;6377;42.836;23.998;2023-03-01T15:38:51;38.83;;;22.70;;
12623;SDS011;6377;42.836;23.998;2023-03-01T15:41:23;28.43;;;18.00;;
12623;SDS011;6377;42.836;23.998;2023-03-01T15:43:51;32.70;;;19.97;;
12623;SDS011;6377;42.836;23.998;2023-03-01T15:46:26;42.03;;;23.40;;
12623;SDS011;6377;42.836;23.998;2023-03-01T15:48:57;50.10;;;29.57;;
12623;SDS011;6377;42.836;23.998;2023-03-01T15:51:30;36.50;;;23.67;;
12623;SDS011;6377;42.836;23.998;2023-03-01T15:54:00;34.67;;;20.20;;
12623;SDS011;6377;42.836;23.998;2023-03-01T15:56:31;35.97;;;20.23;;
12623;SDS011;6377;42.836;23.998;2023-03-01T15:58:59;36.47;;;20.17;;
12623;SDS011;6377;42.836;23.998;2023-03-01T16:01:29;35.33;;;19.37;;